createdAt,value
2023-05-20T00:00:50.666Z,3.60
2023-05-20T00:03:18.143Z,3.42
2023-05-20T00:05:45.174Z,3.58
2023-05-20T00:08:12.504Z,3.38
2023-05-20T00:10:40.082Z,3.05
2023-05-20T00:13:07.838Z,3.25
2023-05-20T00:15:36.628Z,2.90
2023-05-20T00:18:04.708Z,3.95
2023-05-20T00:20:33.169Z,3.10
2023-05-20T00:23:00.188Z,3.63
2023-05-20T00:25:27.148Z,3.42
2023-05-20T00:27:53.998Z,3.50
2023-05-20T00:30:20.871Z,3.00
2023-05-20T00:32:48.101Z,3.25
2023-05-20T00:35:15.166Z,2.58
2023-05-20T00:37:42.006Z,2.92
2023-05-20T00:40:15.397Z,4.05
2023-05-20T00:42:44.040Z,3.70
2023-05-20T00:45:11.422Z,2.85
2023-05-20T00:47:39.548Z,3.17
2023-05-20T00:50:08.054Z,2.97
2023-05-20T00:52:35.541Z,2.47
2023-05-20T00:55:02.440Z,3.08
2023-05-20T00:57:29.630Z,3.13
2023-05-20T00:59:57.156Z,3.33
2023-05-20T01:02:24.513Z,3.17
2023-05-20T01:04:52.228Z,3.00
2023-05-20T01:07:19.813Z,2.97
2023-05-20T01:09:46.808Z,2.90
2023-05-20T01:12:19.001Z,3.17
2023-05-20T01:15:09.947Z,2.93
2023-05-20T01:17:41.779Z,3.42
2023-05-20T01:20:12.787Z,3.22
2023-05-20T01:22:48.230Z,2.80
2023-05-20T01:25:15.177Z,3.13
2023-05-20T01:27:42.290Z,2.17
2023-05-20T01:30:09.871Z,3.22
2023-05-20T01:32:44.079Z,3.00
2023-05-20T01:35:11.698Z,3.20
2023-05-20T01:37:40.971Z,3.03
2023-05-20T01:40:12.678Z,2.35
2023-05-20T01:42:42.097Z,2.95
2023-05-20T01:45:09.610Z,2.70
2023-05-20T01:47:36.497Z,3.72
2023-05-20T01:50:03.705Z,2.90
2023-05-20T01:52:31.956Z,2.97
2023-05-20T01:54:58.916Z,2.47
2023-05-20T01:57:26.186Z,2.45
2023-05-20T01:59:53.053Z,3.35
2023-05-20T02:02:19.932Z,2.33
2023-05-20T02:04:49.110Z,2.72
2023-05-20T02:07:17.224Z,2.92
2023-05-20T02:09:44.093Z,2.88
2023-05-20T02:12:16.526Z,2.70
2023-05-20T02:14:45.953Z,2.72
2023-05-20T02:17:16.533Z,2.80
2023-05-20T02:19:47.445Z,2.83
2023-05-20T02:22:14.840Z,3.38
2023-05-20T02:24:43.668Z,3.33
2023-05-20T02:27:11.007Z,2.38
2023-05-20T02:29:37.913Z,2.72
2023-05-20T02:32:05.295Z,2.85
2023-05-20T02:34:32.752Z,2.70
2023-05-20T02:36:59.649Z,2.40
2023-05-20T02:39:26.819Z,2.90
2023-05-20T02:41:53.660Z,2.17
2023-05-20T02:44:20.504Z,2.50
2023-05-20T02:46:48.366Z,3.08
2023-05-20T02:49:15.222Z,2.60
2023-05-20T02:51:42.194Z,3.15
2023-05-20T02:54:09.046Z,2.58
2023-05-20T02:56:35.930Z,2.13
2023-05-20T02:59:04.959Z,2.60
2023-05-20T03:01:34.034Z,2.60
2023-05-20T03:04:01.458Z,2.25
2023-05-20T03:06:30.354Z,2.78
2023-05-20T03:08:57.210Z,2.28
2023-05-20T03:11:24.099Z,2.50
2023-05-20T03:13:51.406Z,2.45
2023-05-20T03:16:19.025Z,2.55
2023-05-20T03:18:46.539Z,2.60
2023-05-20T03:21:13.733Z,2.50
2023-05-20T03:23:40.600Z,3.40
2023-05-20T03:26:07.446Z,2.28
2023-05-20T03:28:34.648Z,2.70
2023-05-20T03:31:02.756Z,2.45
2023-05-20T03:33:30.282Z,2.42
2023-05-20T03:35:57.154Z,2.53
2023-05-20T03:38:23.993Z,2.95
2023-05-20T03:40:50.871Z,4.10
2023-05-20T03:43:17.719Z,3.63
2023-05-20T03:45:44.588Z,3.58
2023-05-20T03:48:11.494Z,3.20
2023-05-20T03:50:38.347Z,3.63
2023-05-20T03:53:05.212Z,2.92
2023-05-20T03:55:32.661Z,2.70
2023-05-20T03:57:59.632Z,2.33
2023-05-20T04:00:26.478Z,2.55
2023-05-20T04:02:53.443Z,2.58
2023-05-20T04:05:20.368Z,2.55
2023-05-20T04:07:47.362Z,2.65
2023-05-20T04:10:14.232Z,3.67
2023-05-20T04:12:41.627Z,6.35
2023-05-20T04:15:09.462Z,4.50
2023-05-20T04:17:38.578Z,3.97
2023-05-20T04:20:08.366Z,2.80
2023-05-20T04:22:35.404Z,2.65
2023-05-20T04:25:03.877Z,2.95
2023-05-20T04:27:31.548Z,2.80
2023-05-20T04:29:58.990Z,2.50
2023-05-20T04:32:27.064Z,2.90
2023-05-20T04:34:56.274Z,2.47
2023-05-20T04:37:23.369Z,2.92
2023-05-20T04:39:51.263Z,2.38
2023-05-20T04:42:19.181Z,3.33
2023-05-20T04:44:46.375Z,3.42
2023-05-20T04:47:14.107Z,3.45
2023-05-20T04:49:41.282Z,2.70
2023-05-20T04:52:08.462Z,2.55
2023-05-20T04:54:35.373Z,3.45
2023-05-20T04:57:03.055Z,3.47
2023-05-20T04:59:29.934Z,3.33
2023-05-20T05:01:56.902Z,3.92
2023-05-20T05:04:23.809Z,3.80
2023-05-20T05:06:50.805Z,4.43
2023-05-20T05:09:17.808Z,3.25
2023-05-20T05:11:44.673Z,3.60
2023-05-20T05:14:11.557Z,4.05
2023-05-20T05:16:38.396Z,4.93
2023-05-20T05:19:05.315Z,4.90
2023-05-20T05:21:32.330Z,4.00
2023-05-20T05:23:59.219Z,3.90
2023-05-20T05:26:26.808Z,4.07
2023-05-20T05:28:55.486Z,4.00
2023-05-20T05:31:22.448Z,4.00
2023-05-20T05:33:49.379Z,4.00
2023-05-20T05:36:17.032Z,3.90
2023-05-20T05:38:44.647Z,4.75
2023-05-20T05:41:11.513Z,3.97
2023-05-20T05:43:38.420Z,3.83
2023-05-20T05:46:05.456Z,4.75
2023-05-20T05:48:32.537Z,4.13
2023-05-20T05:50:59.428Z,4.78
2023-05-20T05:53:26.295Z,4.60
2023-05-20T05:55:53.140Z,5.05
2023-05-20T05:58:20.171Z,4.30
2023-05-20T06:00:47.117Z,3.85
2023-05-20T06:03:14.161Z,5.03
2023-05-20T06:05:41.116Z,5.40
2023-05-20T06:08:08.328Z,5.13
2023-05-20T06:10:35.221Z,6.82
2023-05-20T06:13:02.069Z,6.25
2023-05-20T06:15:29.008Z,5.07
2023-05-20T06:17:56.702Z,5.78
2023-05-20T06:20:23.635Z,6.32
2023-05-20T06:22:50.618Z,6.40
2023-05-20T06:25:17.593Z,6.63
2023-05-20T06:27:44.757Z,5.68
2023-05-20T06:30:12.458Z,7.18
2023-05-20T06:32:39.657Z,7.28
2023-05-20T06:35:07.310Z,7.00
2023-05-20T06:37:34.312Z,7.03
2023-05-20T06:40:01.255Z,5.82
2023-05-20T06:42:28.150Z,6.80
2023-05-20T06:44:55.003Z,7.13
2023-05-20T06:47:21.948Z,8.00
2023-05-20T06:49:48.831Z,6.90
2023-05-20T06:52:15.767Z,6.70
2023-05-20T06:54:43.125Z,7.22
2023-05-20T06:57:10.811Z,7.53
2023-05-20T06:59:37.971Z,6.63
2023-05-20T07:02:05.198Z,6.25
2023-05-20T07:04:32.121Z,6.75
2023-05-20T07:06:59.048Z,7.45
2023-05-20T07:09:25.957Z,7.75
2023-05-20T07:11:52.961Z,7.82
2023-05-20T07:14:19.904Z,7.47
2023-05-20T07:16:46.848Z,6.72
2023-05-20T07:19:13.823Z,7.75
2023-05-20T07:21:41.380Z,7.53
2023-05-20T07:24:08.333Z,7.78
2023-05-20T07:26:36.670Z,7.10
2023-05-20T07:29:05.198Z,6.47
2023-05-20T07:31:32.187Z,8.23
2023-05-20T07:33:59.314Z,7.90
2023-05-20T07:36:29.803Z,7.95
2023-05-20T07:39:59.169Z,7.38
2023-05-20T07:42:26.011Z,6.43
2023-05-20T07:44:52.860Z,9.65
2023-05-20T07:47:19.774Z,7.57
2023-05-20T07:49:47.083Z,6.93
2023-05-20T07:52:13.945Z,7.22
2023-05-20T07:54:41.937Z,5.65
2023-05-20T07:57:08.934Z,6.30
2023-05-20T07:59:35.797Z,6.43
2023-05-20T08:02:02.706Z,6.78
2023-05-20T08:04:29.640Z,6.35
2023-05-20T08:06:56.732Z,6.07
2023-05-20T08:09:23.573Z,6.03
2023-05-20T08:11:50.959Z,5.38
2023-05-20T08:14:17.916Z,6.13
2023-05-20T08:16:45.024Z,5.93
2023-05-20T08:19:12.026Z,6.15
2023-05-20T08:21:39.394Z,5.35
2023-05-20T08:24:06.716Z,5.38
2023-05-20T08:26:33.705Z,5.45
2023-05-20T08:29:00.622Z,5.85
2023-05-20T08:31:27.503Z,5.68
2023-05-20T08:33:54.435Z,5.20
2023-05-20T08:36:21.285Z,5.40
2023-05-20T08:38:49.007Z,5.28
2023-05-20T08:41:16.207Z,5.85
2023-05-20T08:43:43.340Z,5.10
2023-05-20T08:46:11.773Z,5.75
2023-05-20T08:48:38.826Z,5.35
2023-05-20T08:51:09.775Z,4.65
2023-05-20T08:53:36.809Z,5.05
2023-05-20T08:56:04.034Z,5.32
2023-05-20T08:58:31.553Z,6.15
2023-05-20T09:00:59.105Z,6.47
2023-05-20T09:03:26.073Z,6.82
2023-05-20T09:06:05.873Z,5.70
2023-05-20T09:08:34.475Z,5.63
2023-05-20T09:11:01.607Z,7.55
2023-05-20T09:13:32.881Z,6.63
2023-05-20T09:16:02.251Z,6.35
2023-05-20T09:18:30.264Z,5.35
2023-05-20T09:20:57.873Z,5.32
2023-05-20T09:23:30.908Z,6.90
2023-05-20T09:26:01.169Z,5.90
2023-05-20T09:28:28.016Z,5.50
2023-05-20T09:31:01.729Z,5.25
2023-05-20T09:33:32.319Z,5.53
2023-05-20T09:36:08.199Z,4.97
2023-05-20T09:38:39.923Z,5.70
2023-05-20T09:41:12.200Z,4.72
2023-05-20T09:43:41.058Z,5.88
2023-05-20T09:46:08.738Z,6.60
2023-05-20T09:48:39.396Z,5.75
2023-05-20T09:51:08.180Z,5.68
2023-05-20T09:53:36.279Z,5.93
2023-05-20T09:56:03.552Z,4.65
2023-05-20T09:58:31.305Z,5.57
2023-05-20T10:00:58.269Z,5.65
2023-05-20T10:03:28.416Z,4.95
2023-05-20T10:06:27.471Z,4.93
2023-05-20T10:09:15.174Z,6.00
2023-05-20T10:12:23.766Z,6.03
2023-05-20T10:15:25.232Z,5.65
2023-05-20T10:18:16.374Z,5.90
2023-05-20T10:20:49.909Z,5.28
2023-05-20T10:23:24.698Z,6.40
2023-05-20T10:25:54.045Z,5.13
2023-05-20T10:28:39.048Z,5.05
2023-05-20T10:31:25.846Z,5.90
2023-05-20T10:33:54.406Z,5.65
2023-05-20T10:36:31.966Z,5.47
2023-05-20T10:39:00.166Z,5.18
2023-05-20T10:41:31.437Z,5.30
2023-05-20T10:44:02.498Z,5.72
2023-05-20T10:46:40.145Z,6.13
2023-05-20T10:49:22.459Z,5.80
2023-05-20T10:51:51.720Z,5.38
2023-05-20T10:54:20.257Z,6.20
2023-05-20T10:56:54.464Z,5.82
2023-05-20T10:59:22.371Z,5.63
2023-05-20T11:01:49.632Z,5.63
2023-05-20T11:04:17.713Z,6.05
2023-05-20T11:06:54.417Z,5.60
2023-05-20T11:09:22.182Z,6.30
2023-05-20T11:11:51.697Z,6.07
2023-05-20T11:14:20.303Z,5.95
2023-05-20T11:16:51.801Z,6.15
2023-05-20T11:19:21.965Z,6.15
2023-05-20T11:21:49.400Z,6.72
2023-05-20T11:24:27.504Z,6.13
2023-05-20T11:26:57.685Z,6.15
2023-05-20T11:29:29.295Z,5.80
2023-05-20T11:31:56.455Z,7.45
2023-05-20T11:34:26.344Z,5.88
2023-05-20T11:36:58.987Z,6.28
2023-05-20T11:39:30.459Z,6.15
2023-05-20T11:41:58.791Z,4.60
2023-05-20T11:44:26.505Z,6.05
2023-05-20T11:47:01.703Z,5.70
2023-05-20T11:49:29.043Z,5.00
2023-05-20T11:51:57.031Z,5.22
2023-05-20T11:54:25.046Z,5.30
2023-05-20T11:56:52.314Z,5.32
2023-05-20T11:59:19.203Z,5.20
2023-05-20T12:01:46.141Z,5.13
2023-05-20T12:04:17.737Z,5.43
2023-05-20T12:06:44.754Z,5.15
2023-05-20T12:09:12.037Z,4.45
2023-05-20T12:11:44.885Z,5.32
2023-05-20T12:14:11.985Z,5.65
2023-05-20T12:16:39.228Z,5.30
2023-05-20T12:19:06.392Z,4.88
2023-05-20T12:21:33.391Z,5.60
2023-05-20T12:24:01.324Z,4.60
2023-05-20T12:26:30.068Z,4.78
2023-05-20T12:28:57.292Z,4.22
2023-05-20T12:31:25.089Z,4.45
2023-05-20T12:33:52.051Z,5.30
2023-05-20T12:36:19.867Z,5.65
2023-05-20T12:38:47.288Z,4.65
2023-05-20T12:41:14.339Z,3.88
2023-05-20T12:43:41.254Z,4.47
2023-05-20T12:46:08.338Z,4.63
2023-05-20T12:48:35.336Z,4.70
2023-05-20T12:51:02.205Z,4.13
2023-05-20T12:53:29.072Z,5.10
2023-05-20T12:55:56.023Z,5.00
2023-05-20T12:58:22.936Z,4.35
2023-05-20T13:00:50.092Z,4.85
2023-05-20T13:03:17.258Z,5.75
2023-05-20T13:05:44.295Z,5.18
2023-05-20T13:08:12.796Z,5.82
2023-05-20T13:10:39.670Z,4.88
2023-05-20T13:13:06.891Z,5.40
2023-05-20T13:15:33.872Z,5.10
2023-05-20T13:18:01.793Z,4.78
2023-05-20T13:20:30.084Z,4.80
2023-05-20T13:22:57.119Z,4.55
2023-05-20T13:25:24.111Z,5.97
2023-05-20T13:27:51.121Z,4.65
2023-05-20T13:30:18.136Z,4.90
2023-05-20T13:32:45.171Z,6.13
2023-05-20T13:35:13.314Z,3.67
2023-05-20T13:37:40.162Z,4.53
2023-05-20T13:40:07.907Z,4.43
2023-05-20T13:42:34.829Z,3.80
2023-05-20T13:45:01.686Z,3.67
2023-05-20T13:47:28.615Z,3.58
2023-05-20T13:49:55.679Z,3.88
2023-05-20T13:52:22.561Z,3.42
2023-05-20T13:54:49.534Z,3.30
2023-05-20T13:57:16.640Z,2.72
2023-05-20T13:59:43.553Z,3.17
2023-05-20T14:02:11.296Z,2.83
2023-05-20T14:04:40.533Z,3.00
2023-05-20T14:07:09.651Z,3.10
2023-05-20T14:09:37.018Z,2.63
2023-05-20T14:12:05.016Z,2.70
2023-05-20T14:14:31.994Z,3.22
2023-05-20T14:16:58.826Z,6.03
2023-05-20T14:19:27.197Z,3.40
2023-05-20T14:21:54.327Z,3.50
2023-05-20T14:24:23.470Z,3.13
2023-05-20T14:26:50.761Z,2.80
2023-05-20T14:29:17.809Z,3.00
2023-05-20T14:31:45.119Z,3.70
2023-05-20T14:34:12.164Z,4.22
2023-05-20T14:36:39.554Z,3.50
2023-05-20T14:39:06.533Z,3.72
2023-05-20T14:41:33.456Z,2.70
2023-05-20T14:44:00.329Z,3.05
2023-05-20T14:46:27.307Z,3.10
2023-05-20T14:48:54.277Z,2.80
2023-05-20T14:51:21.218Z,3.33
2023-05-20T14:53:48.059Z,3.05
2023-05-20T14:56:14.931Z,3.05
2023-05-20T14:58:42.407Z,3.75
2023-05-20T15:01:09.511Z,3.15
2023-05-20T15:03:36.910Z,3.17
2023-05-20T15:06:04.038Z,2.92
2023-05-20T15:08:31.594Z,2.97
2023-05-20T15:10:58.480Z,2.85
2023-05-20T15:13:25.343Z,2.75
2023-05-20T15:15:52.254Z,2.90
2023-05-20T15:18:19.178Z,2.78
2023-05-20T15:20:46.046Z,3.22
2023-05-20T15:23:12.954Z,2.83
2023-05-20T15:25:39.847Z,3.17
2023-05-20T15:28:06.724Z,2.30
2023-05-20T15:30:33.776Z,2.78
2023-05-20T15:33:01.516Z,3.42
2023-05-20T15:35:28.836Z,3.13
2023-05-20T15:37:55.764Z,2.63
2023-05-20T15:40:22.819Z,3.33
2023-05-20T15:42:49.683Z,2.45
2023-05-20T15:45:16.669Z,3.08
2023-05-20T15:47:43.562Z,2.95
2023-05-20T15:50:11.515Z,3.33
2023-05-20T15:52:38.916Z,2.42
2023-05-20T15:55:07.057Z,2.40
2023-05-20T15:57:34.041Z,3.00
2023-05-20T16:00:01.576Z,2.78
2023-05-20T16:02:28.930Z,2.85
2023-05-20T16:04:56.064Z,2.70
2023-05-20T16:07:22.926Z,3.05
2023-05-20T16:09:49.860Z,1.95
2023-05-20T16:12:17.357Z,2.45
2023-05-20T16:14:44.926Z,2.97
2023-05-20T16:17:12.682Z,2.60
2023-05-20T16:19:39.611Z,2.63
2023-05-20T16:22:06.490Z,2.63
2023-05-20T16:24:33.414Z,3.08
2023-05-20T16:27:00.344Z,2.63
2023-05-20T16:29:27.336Z,2.63
2023-05-20T16:31:54.258Z,2.75
2023-05-20T16:34:21.219Z,2.78
2023-05-20T16:36:48.129Z,2.60
2023-05-20T16:39:15.657Z,3.03
2023-05-20T16:41:43.326Z,2.95
2023-05-20T16:44:10.887Z,2.40
2023-05-20T16:46:37.752Z,2.80
2023-05-20T16:49:04.597Z,2.75
2023-05-20T16:51:31.572Z,3.00
2023-05-20T16:53:58.426Z,2.33
2023-05-20T16:56:25.306Z,2.40
2023-05-20T16:58:53.250Z,2.80
2023-05-20T17:01:21.786Z,2.85
2023-05-20T17:03:49.134Z,2.35
2023-05-20T17:06:16.127Z,2.20
2023-05-20T17:08:42.973Z,3.10
2023-05-20T17:11:09.905Z,2.60
2023-05-20T17:13:36.783Z,2.65
2023-05-20T17:16:03.785Z,2.38
2023-05-20T17:18:30.842Z,2.55
2023-05-20T17:20:57.761Z,3.08
2023-05-20T17:23:24.675Z,2.72
2023-05-20T17:25:52.052Z,3.03
2023-05-20T17:28:18.881Z,3.03
2023-05-20T17:30:45.814Z,2.78
2023-05-20T17:33:12.826Z,3.03
2023-05-20T17:35:40.150Z,3.00
2023-05-20T17:38:07.091Z,2.58
2023-05-20T17:40:34.157Z,2.60
2023-05-20T17:43:01.163Z,2.50
2023-05-20T17:45:28.030Z,3.15
2023-05-20T17:47:55.020Z,3.42
2023-05-20T17:50:22.068Z,3.03
2023-05-20T17:52:49.237Z,2.83
2023-05-20T17:55:18.495Z,2.42
2023-05-20T17:57:45.413Z,3.13
2023-05-20T18:00:13.277Z,2.95
2023-05-20T18:02:40.246Z,2.92
2023-05-20T18:05:07.846Z,3.17
2023-05-20T18:07:37.563Z,2.85
2023-05-20T18:10:05.192Z,2.70
2023-05-20T18:12:32.055Z,3.10
2023-05-20T18:14:58.999Z,3.55
2023-05-20T18:17:25.937Z,4.88
2023-05-20T18:19:52.834Z,3.92
2023-05-20T18:22:19.720Z,3.60
2023-05-20T18:24:46.678Z,3.97
2023-05-20T18:27:13.577Z,3.33
2023-05-20T18:29:40.443Z,2.85
2023-05-20T18:32:08.260Z,2.85
2023-05-20T18:34:35.120Z,2.53
2023-05-20T18:37:02.025Z,2.80
2023-05-20T18:39:28.890Z,2.85
2023-05-20T18:41:55.773Z,3.55
2023-05-20T18:44:22.686Z,2.42
2023-05-20T18:46:49.667Z,3.22
2023-05-20T18:49:16.547Z,2.70
2023-05-20T18:51:43.399Z,2.40
2023-05-20T18:54:10.266Z,2.90
2023-05-20T18:56:37.313Z,3.45
2023-05-20T18:59:04.195Z,2.88
2023-05-20T19:01:31.492Z,2.85
2023-05-20T19:03:58.388Z,2.70
2023-05-20T19:06:25.955Z,3.08
2023-05-20T19:08:52.884Z,3.05
2023-05-20T19:11:19.772Z,3.00
2023-05-20T19:13:46.633Z,3.30
2023-05-20T19:16:13.663Z,3.17
2023-05-20T19:18:40.667Z,3.10
2023-05-20T19:21:07.647Z,2.85
2023-05-20T19:23:34.623Z,2.63
2023-05-20T19:26:01.525Z,2.88
2023-05-20T19:28:28.464Z,2.83
2023-05-20T19:30:55.342Z,3.35
2023-05-20T19:33:22.393Z,3.45
2023-05-20T19:35:49.367Z,2.95
2023-05-20T19:38:16.552Z,3.45
2023-05-20T19:40:44.700Z,4.03
2023-05-20T19:43:11.672Z,3.28
2023-05-20T19:45:38.916Z,3.55
2023-05-20T19:48:06.719Z,3.92
2023-05-20T19:50:34.470Z,3.63
2023-05-20T19:53:03.475Z,3.20
2023-05-20T19:55:30.434Z,3.63
2023-05-20T19:57:57.379Z,3.35
2023-05-20T20:00:24.440Z,3.33
2023-05-20T20:02:51.450Z,3.67
2023-05-20T20:05:19.002Z,4.20
2023-05-20T20:07:48.142Z,3.50
2023-05-20T20:10:15.032Z,3.33
2023-05-20T20:12:41.935Z,3.80
2023-05-20T20:15:09.951Z,3.30
2023-05-20T20:17:37.368Z,3.47
2023-05-20T20:20:10.364Z,3.47
2023-05-20T20:22:37.194Z,3.92
2023-05-20T20:25:04.180Z,4.38
2023-05-20T20:27:33.207Z,3.67
2023-05-20T20:30:00.601Z,4.38
2023-05-20T20:32:28.163Z,4.20
2023-05-20T20:34:55.098Z,4.18
2023-05-20T20:37:23.173Z,3.90
2023-05-20T20:39:50.250Z,4.35
2023-05-20T20:42:17.131Z,4.82
2023-05-20T20:44:48.547Z,3.90
2023-05-20T20:47:16.259Z,3.80
2023-05-20T20:49:43.171Z,3.95
2023-05-20T20:52:10.512Z,3.58
2023-05-20T20:54:40.190Z,3.85
2023-05-20T20:57:09.001Z,3.88
2023-05-20T20:59:35.867Z,3.58
2023-05-20T21:02:03.396Z,4.20
2023-05-20T21:04:30.337Z,3.92
2023-05-20T21:06:59.545Z,3.90
2023-05-20T21:09:28.093Z,3.65
2023-05-20T21:11:57.367Z,3.90
2023-05-20T21:14:25.427Z,4.18
2023-05-20T21:16:52.510Z,3.45
2023-05-20T21:19:19.578Z,4.30
2023-05-20T21:21:46.547Z,4.07
2023-05-20T21:24:13.437Z,4.68
2023-05-20T21:26:40.325Z,3.65
2023-05-20T21:29:07.640Z,4.78
2023-05-20T21:31:34.663Z,3.88
2023-05-20T21:34:01.562Z,4.43
2023-05-20T21:36:28.458Z,4.00
2023-05-20T21:38:55.714Z,4.18
2023-05-20T21:41:23.590Z,4.53
2023-05-20T21:43:50.671Z,4.13
2023-05-20T21:46:17.540Z,5.45
2023-05-20T21:48:44.625Z,5.05
2023-05-20T21:51:11.576Z,4.05
2023-05-20T21:53:38.428Z,5.30
2023-05-20T21:56:05.422Z,4.57
2023-05-20T21:58:32.351Z,4.10
2023-05-20T22:00:59.231Z,4.00
2023-05-20T22:03:26.223Z,3.97
2023-05-20T22:05:53.150Z,3.92
2023-05-20T22:08:20.040Z,4.75
2023-05-20T22:10:47.232Z,4.53
2023-05-20T22:13:14.249Z,4.63
2023-05-20T22:15:41.148Z,4.00
2023-05-20T22:18:08.113Z,4.28
2023-05-20T22:20:35.111Z,4.45
2023-05-20T22:23:01.952Z,4.53
2023-05-20T22:25:28.816Z,5.57
2023-05-20T22:27:55.936Z,4.82
2023-05-20T22:30:22.972Z,4.68
2023-05-20T22:32:49.979Z,4.53
2023-05-20T22:35:17.033Z,4.32
2023-05-20T22:37:43.879Z,5.05
2023-05-20T22:40:11.037Z,4.25
2023-05-20T22:42:37.903Z,4.72
2023-05-20T22:45:05.980Z,4.13
2023-05-20T22:47:32.893Z,4.75
2023-05-20T22:50:02.734Z,4.47
2023-05-20T22:52:30.132Z,4.50
2023-05-20T22:54:57.759Z,4.90
2023-05-20T22:57:25.976Z,4.50
2023-05-20T22:59:54.050Z,4.28
2023-05-20T23:02:21.770Z,4.15
2023-05-20T23:04:48.746Z,4.28
2023-05-20T23:07:19.205Z,5.53
2023-05-20T23:09:49.224Z,4.43
2023-05-20T23:12:16.501Z,4.03
2023-05-20T23:14:43.385Z,5.43
2023-05-20T23:17:10.328Z,4.35
2023-05-20T23:19:37.293Z,4.20
2023-05-20T23:22:04.492Z,4.85
2023-05-20T23:24:31.332Z,4.30
2023-05-20T23:26:59.491Z,3.92
2023-05-20T23:29:27.132Z,4.53
2023-05-20T23:31:54.011Z,4.50
2023-05-20T23:34:21.612Z,3.67
2023-05-20T23:36:48.521Z,5.25
2023-05-20T23:39:17.452Z,4.95
2023-05-20T23:41:45.331Z,4.75
2023-05-20T23:44:12.184Z,4.82
2023-05-20T23:46:39.119Z,5.13
2023-05-20T23:49:06.901Z,4.72
2023-05-20T23:51:35.683Z,4.60
2023-05-20T23:54:02.602Z,4.32
2023-05-20T23:56:29.504Z,4.57
2023-05-20T23:58:57.913Z,6.05
